Time;durP1;ratioP1;P1;durP2;ratioP2;P2;SDS_P1;SDS_P2;PMS_P1;PMS_P2;Temp;Humidity;BMP_temperature;BMP_pressure;BME280_temperature;BME280_humidity;BME280_pressure;Samples;Min_cycle;Max_cycle;Signal;HPM_P1;HPM_P2
2023/02/05 00:02:11;;;;;;;0.98;0.70;;;20.30;54.30;;;;;;5017313;28;20105;-67
2023/02/05 00:04:37;;;;;;;0.82;0.60;;;20.20;54.20;;;;;;5021067;28;20083;-67
2023/02/05 00:07:04;;;;;;;1.10;0.63;;;20.20;54.10;;;;;;5022354;28;20049;-67
2023/02/05 00:09:29;;;;;;;0.80;0.70;;;20.20;54.10;;;;;;5016245;28;20540;-67
2023/02/05 00:11:55;;;;;;;0.77;0.60;;;20.20;54.10;;;;;;5020078;28;20104;-67
2023/02/05 00:14:22;;;;;;;1.00;0.70;;;20.20;53.90;;;;;;5019539;28;20487;-67
2023/02/05 00:16:47;;;;;;;0.85;0.57;;;20.20;54.00;;;;;;5019882;28;20068;-67
2023/02/05 00:19:13;;;;;;;1.50;0.80;;;20.20;54.10;;;;;;5020190;28;20614;-67
2023/02/05 00:21:38;;;;;;;1.15;0.70;;;20.20;54.30;;;;;;5017716;28;20044;-67
2023/02/05 00:24:04;;;;;;;1.13;0.65;;;20.20;54.30;;;;;;5019674;28;20370;-67
2023/02/05 00:26:30;;;;;;;1.98;0.80;;;20.20;54.30;;;;;;5019878;28;20041;-67
2023/02/05 00:28:56;;;;;;;1.08;0.50;;;20.20;54.30;;;;;;5018324;28;20037;-67
2023/02/05 00:31:22;;;;;;;1.20;0.70;;;20.20;54.40;;;;;;5019612;28;20037;-67
2023/02/05 00:33:49;;;;;;;0.90;0.68;;;20.20;54.80;;;;;;5020702;28;20076;-67
2023/02/05 00:36:15;;;;;;;0.90;0.70;;;20.20;54.30;;;;;;5027589;28;20026;-67
2023/02/05 00:38:42;;;;;;;1.17;0.80;;;20.20;54.40;;;;;;5018269;28;20425;-67
2023/02/05 00:41:08;;;;;;;0.93;0.63;;;20.20;54.30;;;;;;5020226;28;20029;-67
2023/02/05 00:43:34;;;;;;;1.85;0.70;;;20.20;54.30;;;;;;5018295;28;20033;-67
2023/02/05 00:45:59;;;;;;;1.30;0.60;;;20.20;54.30;;;;;;5017317;28;20170;-67
2023/02/05 00:48:25;;;;;;;1.10;0.68;;;20.20;54.30;;;;;;5017543;28;20066;-67
2023/02/05 00:50:52;;;;;;;1.38;0.80;;;20.30;54.30;;;;;;5027220;28;20140;-67
2023/02/05 00:53:19;;;;;;;0.93;0.60;;;20.30;54.30;;;;;;5020542;28;20091;-67
2023/02/05 00:55:44;;;;;;;0.80;0.60;;;20.30;54.30;;;;;;5019429;28;20022;-68
2023/02/05 00:58:11;;;;;;;1.10;0.70;;;20.30;54.30;;;;;;5019326;28;20530;-67
2023/02/05 01:00:37;;;;;;;1.20;0.70;;;20.30;54.30;;;;;;5019908;28;20058;-67
2023/02/05 01:03:03;;;;;;;1.65;0.70;;;20.30;54.30;;;;;;5018223;28;20029;-68
2023/02/05 01:05:31;;;;;;;0.75;0.60;;;20.30;54.30;;;;;;5018402;28;20039;-67
2023/02/05 01:07:57;;;;;;;1.15;0.70;;;20.20;54.20;;;;;;5020579;28;20025;-67
2023/02/05 01:10:22;;;;;;;1.10;0.70;;;20.30;54.20;;;;;;5015227;28;20121;-68
2023/02/05 01:12:49;;;;;;;1.38;0.77;;;20.20;54.00;;;;;;5017975;28;20073;-68
2023/02/05 01:15:15;;;;;;;1.15;0.73;;;20.20;54.00;;;;;;5017953;28;20026;-68
2023/02/05 01:17:41;;;;;;;1.13;0.70;;;20.20;53.90;;;;;;5017169;28;20036;-68
2023/02/05 01:20:07;;;;;;;1.77;0.80;;;20.20;54.00;;;;;;5020394;28;20365;-68
2023/02/05 01:22:33;;;;;;;1.20;0.70;;;20.20;53.90;;;;;;5017793;28;20125;-67
2023/02/05 01:24:59;;;;;;;1.15;0.60;;;20.20;53.90;;;;;;5018970;28;20025;-68
2023/02/05 01:27:25;;;;;;;1.17;0.70;;;20.20;53.90;;;;;;5022373;28;20109;-67
2023/02/05 01:29:50;;;;;;;0.80;0.60;;;20.20;54.00;;;;;;5019248;28;20080;-68
2023/02/05 01:32:16;;;;;;;1.45;0.85;;;20.10;53.90;;;;;;5015529;28;20066;-68
2023/02/05 01:34:43;;;;;;;0.50;0.50;;;20.20;54.00;;;;;;5019652;28;20104;-67
2023/02/05 01:37:08;;;;;;;1.20;0.70;;;20.10;53.90;;;;;;5026835;28;20025;-68
2023/02/05 01:39:36;;;;;;;1.23;0.70;;;20.10;53.90;;;;;;5018417;28;20583;-68
2023/02/05 01:42:25;;;;;;;1.00;0.70;;;20.10;54.00;;;;;;5018411;28;20022;-68
2023/02/05 01:45:21;;;;;;;0.73;0.63;;;20.10;54.00;;;;;;5015674;28;20473;-68
2023/02/05 01:47:54;;;;;;;1.17;0.70;;;20.10;54.00;;;;;;5016093;28;20108;-67
2023/02/05 01:50:28;;;;;;;2.30;0.68;;;20.10;54.00;;;;;;5017581;28;20044;-67
2023/02/05 01:52:55;;;;;;;0.80;0.60;;;20.10;54.00;;;;;;5018379;28;20084;-67
2023/02/05 01:55:21;;;;;;;1.08;0.70;;;20.10;54.10;;;;;;5021269;28;20025;-67
2023/02/05 01:57:49;;;;;;;0.82;0.57;;;20.10;54.00;;;;;;5020029;28;20076;-67
2023/02/05 02:00:15;;;;;;;1.33;0.70;;;20.10;54.00;;;;;;5020572;28;20022;-68
2023/02/05 02:02:41;;;;;;;0.95;0.55;;;20.10;54.10;;;;;;5018309;28;20060;-66
2023/02/05 02:05:11;;;;;;;1.05;0.60;;;20.00;54.00;;;;;;5018394;28;20034;-66
2023/02/05 02:07:36;;;;;;;0.60;0.60;;;20.00;54.00;;;;;;5016490;28;20095;-66
2023/02/05 02:10:03;;;;;;;0.95;0.65;;;20.00;54.00;;;;;;5018929;28;20037;-66
2023/02/05 02:12:32;;;;;;;1.00;0.60;;;20.00;54.00;;;;;;5018672;28;20084;-66
2023/02/05 02:15:09;;;;;;;0.93;0.70;;;20.00;54.00;;;;;;5018667;28;20025;-66
2023/02/05 02:17:39;;;;;;;1.83;0.90;;;20.00;54.00;;;;;;5022717;28;20103;-66
2023/02/05 02:20:06;;;;;;;0.90;0.50;;;20.00;53.90;;;;;;5020889;28;20026;-66
2023/02/05 02:22:40;;;;;;;1.33;0.70;;;20.00;53.90;;;;;;5019043;28;20025;-65
2023/02/05 02:25:36;;;;;;;0.90;0.60;;;20.00;53.90;;;;;;5021930;28;20032;-66
2023/02/05 02:28:25;;;;;;;0.90;0.60;;;20.00;53.90;;;;;;5022220;28;20041;-66
2023/02/05 02:30:59;;;;;;;0.80;0.60;;;20.00;53.80;;;;;;5024193;28;20037;-65
2023/02/05 02:33:36;;;;;;;1.02;0.73;;;20.00;53.80;;;;;;5021789;28;20022;-66
2023/02/05 02:36:26;;;;;;;1.02;0.60;;;20.00;53.80;;;;;;5022482;28;20029;-65
2023/02/05 02:39:18;;;;;;;1.00;0.60;;;20.00;53.70;;;;;;5019278;28;20160;-65
2023/02/05 02:41:52;;;;;;;0.63;0.60;;;19.90;53.70;;;;;;5022581;28;20445;-67
2023/02/05 02:44:40;;;;;;;1.00;0.60;;;19.90;53.60;;;;;;5020376;28;20547;-66
2023/02/05 02:47:17;;;;;;;1.02;0.50;;;19.90;53.60;;;;;;5022985;28;20029;-65
2023/02/05 02:50:10;;;;;;;0.95;0.60;;;19.90;54.10;;;;;;5021880;28;20461;-66
2023/02/05 02:52:41;;;;;;;0.82;0.70;;;19.90;53.60;;;;;;5020017;28;20061;-66
2023/02/05 02:55:11;;;;;;;0.70;0.60;;;19.90;53.60;;;;;;5018550;28;20022;-65
2023/02/05 02:57:40;;;;;;;0.90;0.60;;;19.90;53.50;;;;;;5021739;28;20025;-65
2023/02/05 03:00:17;;;;;;;0.77;0.57;;;19.90;54.00;;;;;;5019896;28;20488;-65
2023/02/05 03:02:46;;;;;;;2.10;0.80;;;19.90;53.50;;;;;;5020376;28;20135;-65
2023/02/05 03:05:16;;;;;;;1.00;0.70;;;19.90;54.00;;;;;;5021492;28;20029;-65
2023/02/05 03:07:53;;;;;;;0.80;0.65;;;19.90;53.50;;;;;;5018813;28;20030;-64
2023/02/05 03:10:30;;;;;;;0.88;0.73;;;19.90;53.50;;;;;;5020630;28;20025;-66
2023/02/05 03:12:56;;;;;;;0.70;0.57;;;19.90;53.50;;;;;;5023257;28;20484;-65
2023/02/05 03:15:22;;;;;;;0.85;0.70;;;19.90;53.50;;;;;;5022725;28;20109;-64
2023/02/05 03:17:51;;;;;;;0.82;0.60;;;19.80;53.40;;;;;;5020070;28;20076;-64
2023/02/05 03:20:25;;;;;;;1.15;0.80;;;19.80;53.40;;;;;;5019807;28;20784;-64
2023/02/05 03:22:51;;;;;;;0.93;0.70;;;19.80;53.40;;;;;;5020276;28;20100;-64
2023/02/05 03:25:20;;;;;;;1.00;0.80;;;19.80;53.40;;;;;;5021829;28;20037;-65
2023/02/05 03:27:47;;;;;;;0.63;0.60;;;19.80;53.30;;;;;;5021402;28;20037;-65
2023/02/05 03:30:13;;;;;;;0.65;0.60;;;19.80;53.30;;;;;;5024614;28;20070;-65
2023/02/05 03:33:00;;;;;;;1.13;0.70;;;19.80;53.30;;;;;;5020758;28;20083;-64
2023/02/05 03:35:33;;;;;;;0.50;0.50;;;19.80;53.30;;;;;;5022165;28;20034;-65
2023/02/05 03:38:26;;;;;;;0.77;0.68;;;19.80;53.30;;;;;;5024864;28;20389;-64
2023/02/05 03:41:00;;;;;;;1.10;0.70;;;19.80;53.40;;;;;;5020511;28;20091;-64
2023/02/05 03:43:49;;;;;;;1.10;0.70;;;19.80;53.30;;;;;;5023903;28;20141;-64
2023/02/05 03:46:24;;;;;;;;;;;19.80;53.30;;;;;;5020969;28;20396;-64
2023/02/05 03:49:30;;;;;;;0.88;0.63;;;19.70;53.20;;;;;;5021243;28;19913;-64
2023/02/05 03:52:06;;;;;;;0.90;0.75;;;19.70;53.30;;;;;;5020044;28;20024;-65
2023/02/05 03:54:51;;;;;;;1.15;0.63;;;19.70;53.20;;;;;;5023206;28;20473;-64
2023/02/05 03:57:22;;;;;;;1.10;0.70;;;19.70;53.30;;;;;;5020520;28;20025;-65
2023/02/05 03:59:49;;;;;;;1.20;0.80;;;19.70;53.30;;;;;;5021237;28;20113;-64
2023/02/05 04:02:16;;;;;;;0.75;0.52;;;19.70;53.30;;;;;;5019458;28;20060;-64
2023/02/05 04:04:42;;;;;;;1.00;0.70;;;19.70;53.30;;;;;;5027845;28;20029;-63
2023/02/05 04:07:08;;;;;;;0.90;0.68;;;19.70;53.30;;;;;;5030824;28;20029;-64
2023/02/05 04:09:33;;;;;;;0.95;0.75;;;19.70;53.30;;;;;;5019280;28;20100;-63
2023/02/05 04:11:59;;;;;;;0.95;0.70;;;19.70;53.30;;;;;;5018686;28;20041;-64
2023/02/05 04:14:25;;;;;;;1.17;0.70;;;19.70;53.30;;;;;;5022601;28;20022;-63
2023/02/05 04:16:50;;;;;;;0.80;0.68;;;19.60;53.30;;;;;;5024557;28;20093;-64
2023/02/05 04:19:16;;;;;;;0.95;0.75;;;19.60;53.30;;;;;;5020722;28;20108;-64
2023/02/05 04:21:41;;;;;;;0.88;0.70;;;19.60;53.30;;;;;;5018076;28;20079;-64
2023/02/05 04:24:07;;;;;;;0.93;0.70;;;19.60;53.30;;;;;;5019219;28;20034;-64
2023/02/05 04:26:32;;;;;;;1.08;0.70;;;19.60;53.30;;;;;;5019225;28;20540;-64
2023/02/05 04:28:58;;;;;;;0.88;0.77;;;19.60;53.30;;;;;;5015993;28;20474;-64
2023/02/05 04:31:24;;;;;;;1.48;0.90;;;19.60;53.30;;;;;;5020582;28;20024;-63
2023/02/05 04:33:51;;;;;;;0.82;0.60;;;19.60;53.30;;;;;;5019807;28;20057;-63
2023/02/05 04:36:16;;;;;;;1.00;0.70;;;19.60;53.30;;;;;;5020857;28;20539;-63
2023/02/05 04:38:42;;;;;;;1.23;0.80;;;19.60;53.30;;;;;;5018861;28;20021;-64
2023/02/05 04:41:08;;;;;;;0.90;0.65;;;19.60;53.20;;;;;;5017549;28;20104;-64
2023/02/05 04:43:33;;;;;;;0.70;0.70;;;19.60;53.20;;;;;;5020403;28;20038;-64
2023/02/05 04:46:05;;;;;;;0.90;0.70;;;19.60;53.20;;;;;;5020933;28;20150;-64
2023/02/05 04:48:30;;;;;;;1.20;0.90;;;19.60;53.20;;;;;;5019231;28;20037;-64
2023/02/05 04:50:56;;;;;;;1.38;0.80;;;19.60;53.20;;;;;;5019466;28;20077;-64
2023/02/05 04:53:22;;;;;;;0.93;0.70;;;19.60;53.20;;;;;;5016659;28;20075;-64
2023/02/05 04:55:47;;;;;;;1.10;0.80;;;19.50;53.20;;;;;;5013902;28;20025;-64
2023/02/05 04:58:13;;;;;;;0.80;0.70;;;19.60;53.20;;;;;;5015297;28;20022;-63
2023/02/05 05:00:38;;;;;;;1.55;0.80;;;19.60;53.20;;;;;;5019052;28;20029;-64
2023/02/05 05:03:04;;;;;;;0.68;0.65;;;19.60;53.20;;;;;;5019774;28;20030;-64
2023/02/05 05:05:30;;;;;;;0.80;0.70;;;19.60;53.20;;;;;;5020502;28;20110;-64
2023/02/05 05:07:57;;;;;;;1.67;0.80;;;19.50;53.20;;;;;;5020059;28;20026;-63
2023/02/05 05:10:23;;;;;;;0.80;0.70;;;19.50;53.10;;;;;;5015397;28;20100;-65
2023/02/05 05:12:48;;;;;;;1.00;0.70;;;19.50;53.10;;;;;;5020462;28;20029;-64
2023/02/05 05:15:14;;;;;;;0.82;0.70;;;19.50;53.10;;;;;;5018549;28;20104;-65
2023/02/05 05:17:39;;;;;;;1.23;0.90;;;19.50;53.10;;;;;;5020120;28;20034;-64
2023/02/05 05:20:05;;;;;;;1.08;0.77;;;19.60;53.20;;;;;;5017984;28;20022;-64
2023/02/05 05:22:31;;;;;;;1.25;0.80;;;19.50;53.10;;;;;;5019594;28;20100;-63
2023/02/05 05:24:56;;;;;;;1.13;0.80;;;19.50;53.10;;;;;;5018718;28;20029;-65
2023/02/05 05:27:23;;;;;;;0.88;0.70;;;19.50;53.10;;;;;;5017994;28;20045;-63
2023/02/05 05:29:49;;;;;;;1.50;0.80;;;19.50;53.10;;;;;;5016991;28;20071;-65
2023/02/05 05:32:15;;;;;;;0.80;0.70;;;19.50;53.60;;;;;;5018352;28;20116;-64
2023/02/05 05:34:40;;;;;;;1.00;0.70;;;19.50;53.10;;;;;;5020098;28;20106;-65
2023/02/05 05:37:06;;;;;;;2.15;0.85;;;19.50;53.10;;;;;;5017650;28;20030;-65
2023/02/05 05:45:00;;;;;;;1.00;0.80;;;19.50;53.10;;;;;;5016384;28;20041;-64
2023/02/05 05:47:25;;;;;;;1.08;0.75;;;19.50;53.10;;;;;;5020925;28;20042;-64
2023/02/05 05:49:51;;;;;;;1.17;0.90;;;19.50;53.10;;;;;;5019820;28;20029;-65
2023/02/05 05:52:17;;;;;;;1.10;0.80;;;19.50;53.10;;;;;;5021278;28;20072;-65
2023/02/05 05:54:42;;;;;;;1.70;0.80;;;19.50;53.10;;;;;;5022519;28;20196;-64
2023/02/05 05:57:08;;;;;;;0.85;0.70;;;19.50;53.10;;;;;;5023057;28;20116;-64
2023/02/05 05:59:34;;;;;;;0.93;0.70;;;19.50;53.10;;;;;;5020504;28;20022;-66
2023/02/05 06:02:01;;;;;;;1.02;0.80;;;19.50;53.10;;;;;;5020415;28;20039;-65
2023/02/05 06:04:27;;;;;;;0.60;0.60;;;19.40;53.10;;;;;;5022820;28;20053;-65
2023/02/05 06:06:53;;;;;;;1.00;0.80;;;19.40;53.10;;;;;;5019855;28;20034;-64
2023/02/05 06:09:20;;;;;;;0.88;0.70;;;19.50;53.10;;;;;;5021485;28;20026;-65
2023/02/05 06:11:47;;;;;;;1.00;0.70;;;19.40;53.60;;;;;;5022552;28;20038;-65
2023/02/05 06:14:12;;;;;;;0.88;0.63;;;19.40;53.10;;;;;;5023242;28;20306;-64
2023/02/05 06:16:39;;;;;;;0.93;0.70;;;19.40;53.10;;;;;;5021497;28;20028;-64
2023/02/05 06:19:04;;;;;;;0.73;0.60;;;19.50;53.10;;;;;;5021397;28;20033;-66
2023/02/05 06:21:30;;;;;;;0.80;0.70;;;19.50;53.10;;;;;;5022494;28;20038;-64
2023/02/05 06:23:56;;;;;;;0.75;0.70;;;19.50;53.10;;;;;;5022848;28;20041;-65
2023/02/05 06:26:21;;;;;;;1.33;0.85;;;19.40;53.00;;;;;;5021681;28;20036;-65
2023/02/05 06:28:47;;;;;;;0.90;0.70;;;19.40;53.00;;;;;;5022223;28;20033;-65
2023/02/05 06:31:12;;;;;;;1.00;0.70;;;19.40;53.00;;;;;;5018452;28;20066;-65
2023/02/05 06:33:38;;;;;;;1.17;0.63;;;19.40;53.00;;;;;;5022795;28;20475;-66
2023/02/05 06:36:04;;;;;;;1.25;0.98;;;19.40;53.10;;;;;;5019540;28;20085;-65
2023/02/05 06:38:30;;;;;;;1.05;0.75;;;19.40;53.00;;;;;;5023828;28;20036;-65
2023/02/05 06:40:55;;;;;;;0.90;0.73;;;19.40;53.00;;;;;;5020940;28;20104;-65
2023/02/05 06:43:21;;;;;;;0.93;0.70;;;19.40;53.00;;;;;;5020123;28;20068;-65
2023/02/05 06:45:47;;;;;;;1.25;0.80;;;19.40;53.00;;;;;;5022255;28;20136;-64
2023/02/05 06:48:13;;;;;;;0.70;0.60;;;19.40;53.00;;;;;;5023347;28;20044;-64
2023/02/05 06:50:38;;;;;;;0.93;0.63;;;19.40;53.00;;;;;;5019652;28;20037;-64
2023/02/05 06:53:04;;;;;;;0.82;0.70;;;19.40;53.00;;;;;;5022471;28;20048;-64
2023/02/05 06:55:29;;;;;;;0.70;0.60;;;19.40;53.10;;;;;;5023460;28;20048;-65
2023/02/05 06:57:55;;;;;;;0.98;0.77;;;19.40;53.00;;;;;;5020089;28;20392;-64
2023/02/05 07:00:20;;;;;;;0.63;0.60;;;19.40;53.00;;;;;;5021326;28;20108;-65
2023/02/05 07:02:46;;;;;;;0.98;0.70;;;19.40;53.00;;;;;;5021388;28;20453;-65
2023/02/05 07:05:12;;;;;;;0.75;0.70;;;19.40;53.00;;;;;;5023078;28;20057;-64
2023/02/05 07:07:38;;;;;;;1.10;0.70;;;19.40;53.00;;;;;;5021533;28;20492;-65
2023/02/05 07:10:04;;;;;;;0.88;0.70;;;19.40;53.00;;;;;;5022221;28;20030;-65
2023/02/05 07:12:30;;;;;;;1.35;0.75;;;19.40;53.00;;;;;;5018668;28;20093;-65
2023/02/05 07:14:56;;;;;;;1.05;0.70;;;19.40;53.00;;;;;;5023985;28;20435;-66
2023/02/05 07:17:21;;;;;;;0.70;0.70;;;19.30;52.90;;;;;;5021630;28;20125;-65
2023/02/05 07:19:47;;;;;;;0.75;0.70;;;19.40;52.90;;;;;;5023671;28;20030;-65
2023/02/05 07:22:13;;;;;;;1.23;0.85;;;19.40;52.90;;;;;;5020757;28;20033;-65
2023/02/05 07:24:39;;;;;;;0.93;0.60;;;19.30;52.80;;;;;;5020589;28;20811;-66
2023/02/05 07:27:05;;;;;;;0.80;0.68;;;19.40;52.80;;;;;;5022030;28;20145;-66
2023/02/05 07:29:30;;;;;;;0.63;0.63;;;19.30;52.80;;;;;;5020934;28;20030;-64
2023/02/05 07:31:56;;;;;;;0.68;0.60;;;19.40;53.30;;;;;;5020162;28;20040;-65
2023/02/05 07:34:22;;;;;;;1.17;0.70;;;19.40;52.60;;;;;;5022856;28;20487;-64
2023/02/05 07:36:51;;;;;;;0.80;0.70;;;19.40;52.50;;;;;;5027496;28;20045;-64
2023/02/05 07:39:17;;;;;;;;;;;19.40;52.50;;;;;;5020846;28;20030;-64
2023/02/05 07:41:43;;;;;;;0.68;0.60;;;19.40;52.50;;;;;;5020881;28;19921;-65
2023/02/05 07:44:09;;;;;;;1.58;0.80;;;19.40;52.50;;;;;;5021078;28;20034;-65
2023/02/05 07:46:34;;;;;;;0.88;0.70;;;19.40;52.50;;;;;;5021174;28;20091;-65
2023/02/05 07:49:00;;;;;;;0.70;0.63;;;19.40;52.50;;;;;;5019260;28;20092;-65
2023/02/05 07:51:26;;;;;;;0.85;0.70;;;19.40;52.50;;;;;;5020431;28;20022;-64
2023/02/05 07:53:52;;;;;;;0.88;0.73;;;19.40;52.60;;;;;;5021950;28;20124;-65
2023/02/05 07:56:20;;;;;;;0.60;0.52;;;19.40;52.60;;;;;;5018913;28;20017;-65
2023/02/05 07:58:46;;;;;;;0.70;0.70;;;19.40;52.60;;;;;;5020294;28;20645;-66
2023/02/05 08:01:12;;;;;;;1.00;0.80;;;19.40;52.70;;;;;;5022296;28;20040;-64
2023/02/05 08:03:38;;;;;;;1.52;1.00;;;19.40;52.70;;;;;;5028560;28;20025;-65
2023/02/05 08:06:05;;;;;;;0.60;0.60;;;19.40;52.80;;;;;;5021854;28;20030;-65
2023/02/05 08:08:31;;;;;;;1.17;0.80;;;19.40;52.80;;;;;;5028395;28;20069;-65
2023/02/05 08:11:05;;;;;;;1.00;0.80;;;19.40;52.90;;;;;;5016335;28;20058;-64
2023/02/05 08:13:31;;;;;;;1.30;0.85;;;19.40;53.00;;;;;;5026000;28;20017;-64
2023/02/05 08:15:57;;;;;;;1.30;0.80;;;19.40;53.10;;;;;;5015341;28;20072;-64
2023/02/05 08:18:23;;;;;;;1.40;0.90;;;19.40;53.10;;;;;;5015838;28;20365;-65
2023/02/05 08:20:52;;;;;;;1.08;0.80;;;19.40;53.20;;;;;;5018841;28;20030;-67
2023/02/05 08:23:19;;;;;;;1.05;0.90;;;19.40;53.20;;;;;;5020741;28;20033;-65
2023/02/05 08:25:44;;;;;;;1.20;0.80;;;19.40;53.10;;;;;;5019375;28;20044;-65
2023/02/05 08:28:10;;;;;;;1.13;0.77;;;19.40;53.10;;;;;;5019154;28;20116;-65
2023/02/05 08:30:35;;;;;;;1.50;1.00;;;19.40;53.10;;;;;;5020644;28;20036;-67
2023/02/05 08:33:01;;;;;;;0.93;0.75;;;19.40;53.10;;;;;;5019884;28;20018;-66
2023/02/05 08:35:26;;;;;;;0.80;0.70;;;19.40;53.10;;;;;;5021302;28;20022;-66
2023/02/05 08:37:52;;;;;;;1.33;0.90;;;19.40;53.10;;;;;;5020908;28;20026;-66
2023/02/05 08:40:18;;;;;;;1.58;0.80;;;19.40;53.20;;;;;;5019402;28;20481;-66
2023/02/05 08:42:45;;;;;;;1.42;0.80;;;19.40;53.20;;;;;;5022535;28;20561;-66
2023/02/05 08:45:11;;;;;;;1.10;0.80;;;19.40;53.70;;;;;;5018761;28;20028;-66
2023/02/05 08:47:36;;;;;;;1.60;0.90;;;19.40;53.70;;;;;;5020316;28;20038;-66
2023/02/05 08:50:04;;;;;;;1.02;0.77;;;19.40;53.20;;;;;;5028058;28;20033;-66
2023/02/05 08:52:30;;;;;;;1.10;0.85;;;19.40;53.20;;;;;;5017377;28;20069;-65
2023/02/05 08:54:55;;;;;;;1.00;0.80;;;19.30;53.20;;;;;;5019071;28;20087;-67
2023/02/05 08:57:21;;;;;;;0.98;0.70;;;19.40;53.20;;;;;;5018846;28;20029;-66
2023/02/05 08:59:47;;;;;;;1.27;0.98;;;19.40;53.20;;;;;;5015389;28;20159;-66
2023/02/05 09:02:15;;;;;;;0.98;0.80;;;19.30;53.20;;;;;;5023083;28;20441;-65
2023/02/05 09:04:41;;;;;;;0.70;0.70;;;19.40;53.30;;;;;;5014122;28;20060;-66
2023/02/05 09:07:07;;;;;;;1.73;0.95;;;19.40;53.30;;;;;;5021027;28;20030;-66
2023/02/05 09:09:34;;;;;;;2.58;1.10;;;19.40;53.40;;;;;;5020399;28;20025;-67
2023/02/05 09:12:00;;;;;;;2.63;1.23;;;19.30;53.40;;;;;;5019630;28;20079;-66
2023/02/05 09:14:26;;;;;;;5.00;1.52;;;19.30;53.40;;;;;;5017313;28;20967;-67
2023/02/05 09:16:52;;;;;;;3.20;1.48;;;19.40;53.50;;;;;;5034593;28;20109;-67
2023/02/05 09:19:17;;;;;;;5.38;1.60;;;19.30;53.50;;;;;;5018632;28;20025;-66
2023/02/05 09:21:43;;;;;;;4.10;1.60;;;19.40;53.60;;;;;;5019845;28;20128;-67
2023/02/05 09:24:09;;;;;;;4.00;1.60;;;19.40;53.60;;;;;;5017319;28;20033;-66
2023/02/05 09:26:36;;;;;;;4.55;1.80;;;19.30;53.60;;;;;;5020244;28;20436;-67
2023/02/05 09:29:02;;;;;;;4.38;1.90;;;19.40;53.70;;;;;;5015775;28;20022;-68
2023/02/05 09:31:27;;;;;;;6.35;1.73;;;19.40;53.70;;;;;;5023728;28;20448;-66
2023/02/05 09:33:54;;;;;;;5.82;1.90;;;19.40;53.80;;;;;;5019247;28;20057;-66
2023/02/05 09:36:22;;;;;;;4.80;1.67;;;19.40;53.80;;;;;;5019037;28;20056;-67
2023/02/05 09:38:49;;;;;;;3.58;1.60;;;19.30;53.80;;;;;;5019781;28;20057;-67
2023/02/05 09:41:23;;;;;;;4.47;1.70;;;19.30;54.30;;;;;;5018513;28;20030;-66
2023/02/05 09:44:20;;;;;;;4.88;1.85;;;19.30;53.80;;;;;;5019553;28;20021;-67
2023/02/05 09:46:51;;;;;;;5.45;1.75;;;19.30;53.90;;;;;;5016294;28;20425;-68
2023/02/05 09:49:18;;;;;;;5.13;1.85;;;19.30;53.80;;;;;;5019351;28;20105;-67
2023/02/05 09:51:48;;;;;;;5.00;1.70;;;19.30;53.80;;;;;;5019660;28;20034;-67
2023/02/05 09:54:25;;;;;;;6.03;2.10;;;19.30;53.90;;;;;;5018211;28;20074;-68
2023/02/05 09:56:55;;;;;;;4.38;1.80;;;19.30;54.40;;;;;;5017053;28;20030;-68
2023/02/05 09:59:24;;;;;;;4.00;1.45;;;19.30;53.90;;;;;;5017061;28;20368;-68
2023/02/05 10:01:58;;;;;;;4.63;1.83;;;19.30;54.00;;;;;;5019513;28;20029;-67
2023/02/05 10:04:26;;;;;;;4.45;1.77;;;19.30;54.10;;;;;;5018381;28;20501;-67
2023/02/05 10:07:16;;;;;;;4.93;1.90;;;19.30;54.20;;;;;;5019959;28;20025;-68
2023/02/05 10:10:02;;;;;;;3.80;1.73;;;19.30;54.30;;;;;;5018646;28;20041;-67
2023/02/05 10:13:04;;;;;;;5.38;1.83;;;19.30;54.40;;;;;;5015071;28;20036;-67
2023/02/05 10:16:01;;;;;;;5.05;1.90;;;19.30;54.50;;;;;;5017901;28;20032;-67
2023/02/05 10:18:32;;;;;;;5.43;1.60;;;19.30;54.60;;;;;;5014882;28;20483;-67
2023/02/05 10:21:22;;;;;;;3.55;1.63;;;19.30;54.60;;;;;;5014907;28;20105;-67
2023/02/05 10:23:50;;;;;;;;;;;19.30;54.70;;;;;;5018754;28;20508;-67
2023/02/05 10:26:19;;;;;;;4.43;1.80;;;19.30;54.80;;;;;;5019030;28;19905;-67
2023/02/05 10:29:02;;;;;;;5.50;1.95;;;19.30;54.70;;;;;;5016343;28;20029;-68
2023/02/05 10:32:07;;;;;;;3.50;1.55;;;19.30;54.80;;;;;;5017446;28;20038;-67
2023/02/05 10:34:38;;;;;;;6.00;2.17;;;19.30;54.80;;;;;;5017875;28;20092;-68
2023/02/05 10:37:11;;;;;;;3.92;1.73;;;19.30;54.70;;;;;;5021757;28;20484;-68
2023/02/05 10:39:36;;;;;;;4.57;1.65;;;19.30;54.70;;;;;;5022683;28;20057;-68
2023/02/05 10:42:20;;;;;;;3.60;1.73;;;19.30;54.80;;;;;;5022350;28;20064;-68
2023/02/05 10:44:49;;;;;;;5.07;2.05;;;19.30;54.90;;;;;;5017981;28;20140;-68
2023/02/05 10:47:34;;;;;;;4.65;1.90;;;19.30;55.00;;;;;;5023330;28;20042;-69
2023/02/05 10:50:15;;;;;;;3.38;1.67;;;19.30;55.50;;;;;;5020284;28;20038;-68
2023/02/05 10:52:40;;;;;;;4.45;2.17;;;19.30;55.30;;;;;;5021705;28;20032;-68
2023/02/05 10:55:11;;;;;;;4.55;2.17;;;19.40;55.30;;;;;;5023066;28;20029;-68
2023/02/05 10:57:36;;;;;;;4.47;1.70;;;19.40;55.20;;;;;;5021148;28;20048;-69
2023/02/05 11:00:17;;;;;;;4.10;2.17;;;19.30;55.10;;;;;;5019544;28;20025;-69
2023/02/05 11:02:47;;;;;;;4.88;2.25;;;19.30;55.20;;;;;;5028970;28;20030;-69
2023/02/05 11:05:40;;;;;;;5.63;2.60;;;19.30;55.20;;;;;;5035900;28;20033;-69
2023/02/05 11:08:33;;;;;;;5.18;2.80;;;19.30;55.30;;;;;;5022104;28;20038;-69
2023/02/05 11:10:59;;;;;;;5.82;3.20;;;19.30;55.30;;;;;;5021947;28;20030;-69
2023/02/05 11:13:26;;;;;;;4.68;3.53;;;19.30;55.70;;;;;;5022733;28;20152;-69
2023/02/05 11:16:04;;;;;;;5.10;3.47;;;19.30;55.20;;;;;;5020167;28;20022;-70
2023/02/05 11:18:40;;;;;;;6.75;4.00;;;19.30;55.30;;;;;;5019409;28;20030;-69
2023/02/05 11:21:08;;;;;;;6.43;4.20;;;19.30;55.30;;;;;;5021646;28;20037;-70
2023/02/05 11:23:38;;;;;;;7.13;5.18;;;19.30;55.30;;;;;;5022297;28;20043;-69
2023/02/05 11:26:19;;;;;;;8.93;6.85;;;19.30;55.80;;;;;;5022526;28;20036;-70
2023/02/05 11:28:45;;;;;;;11.80;9.70;;;19.30;55.30;;;;;;5029379;28;20030;-69
2023/02/05 11:31:37;;;;;;;12.82;11.35;;;19.30;55.30;;;;;;5021944;28;20029;-69
2023/02/05 11:34:14;;;;;;;17.45;13.65;;;19.30;55.40;;;;;;5021897;28;20172;-69
2023/02/05 11:36:54;;;;;;;17.80;15.95;;;19.30;55.40;;;;;;5027858;28;20022;-69
2023/02/05 11:39:35;;;;;;;20.50;18.30;;;19.30;55.40;;;;;;5021910;28;20026;-69
2023/02/05 11:42:27;;;;;;;23.45;21.05;;;19.30;55.40;;;;;;5021876;28;20076;-69
2023/02/05 11:44:57;;;;;;;25.63;23.02;;;19.30;55.40;;;;;;5022090;28;20224;-69
2023/02/05 11:47:32;;;;;;;26.38;23.60;;;19.30;55.50;;;;;;5020090;28;20454;-69
2023/02/05 11:49:58;;;;;;;27.65;24.83;;;19.30;55.40;;;;;;5016376;28;20076;-69
2023/02/05 11:52:32;;;;;;;27.85;25.08;;;19.30;55.40;;;;;;5020934;28;20042;-69
2023/02/05 11:54:58;;;;;;;28.15;25.33;;;19.30;55.30;;;;;;5019611;28;20388;-69
2023/02/05 11:57:32;;;;;;;30.83;27.73;;;19.30;55.90;;;;;;5017830;28;20039;-69
2023/02/05 11:59:59;;;;;;;29.92;26.77;;;19.30;55.30;;;;;;5016495;28;20029;-69
2023/02/05 12:02:24;;;;;;;28.75;25.75;;;19.30;55.30;;;;;;5020306;28;20393;-69
2023/02/05 12:04:56;;;;;;;29.70;26.70;;;19.30;55.30;;;;;;5020085;28;20029;-69
2023/02/05 12:07:24;;;;;;;28.65;25.77;;;19.30;55.20;;;;;;5018644;28;20025;-69
2023/02/05 12:09:54;;;;;;;28.02;25.10;;;19.30;55.10;;;;;;5020226;28;20366;-69
2023/02/05 12:12:27;;;;;;;30.33;27.13;;;19.30;55.10;;;;;;5020308;28;20018;-69
2023/02/05 12:15:22;;;;;;;30.55;27.25;;;19.30;55.10;;;;;;5017914;28;20338;-69
2023/02/05 12:18:28;;;;;;;29.38;26.45;;;19.30;55.00;;;;;;5021123;28;20030;-69
2023/02/05 12:21:35;;;;;;;30.50;27.40;;;19.30;55.00;;;;;;5022823;28;20060;-68
2023/02/05 12:24:41;;;;;;;30.48;27.17;;;19.30;55.00;;;;;;5019160;28;20025;-69
2023/02/05 12:27:38;;;;;;;29.55;26.35;;;19.30;54.90;;;;;;5018839;28;20033;-69
2023/02/05 12:30:29;;;;;;;29.70;26.65;;;19.30;54.90;;;;;;5016486;28;20077;-69
2023/02/05 12:33:27;;;;;;;28.48;25.52;;;19.30;54.80;;;;;;5022451;28;20489;-69
2023/02/05 12:36:06;;;;;;;27.88;25.17;;;19.30;54.80;;;;;;5017957;28;20092;-68
2023/02/05 12:38:54;;;;;;;29.90;26.80;;;19.30;55.30;;;;;;5016647;28;20513;-69
2023/02/05 12:41:47;;;;;;;27.70;24.80;;;19.40;54.80;;;;;;5018343;28;20037;-69
2023/02/05 12:44:43;;;;;;;27.40;24.63;;;19.40;54.70;;;;;;5017708;28;20532;-69
2023/02/05 12:47:11;;;;;;;26.80;24.00;;;19.40;54.80;;;;;;5030575;28;20041;-69
2023/02/05 12:49:57;;;;;;;26.50;23.75;;;19.30;54.70;;;;;;5020674;28;20446;-69
2023/02/05 12:52:41;;;;;;;26.65;23.90;;;19.30;54.70;;;;;;5018674;28;20037;-69
2023/02/05 12:55:25;;;;;;;25.23;22.52;;;19.40;54.70;;;;;;5020183;28;20442;-69
2023/02/05 12:57:57;;;;;;;24.73;22.23;;;19.30;54.60;;;;;;5020237;28;20030;-69
2023/02/05 13:00:28;;;;;;;26.17;23.00;;;19.30;54.60;;;;;;5019007;28;20048;-69
2023/02/05 13:03:10;;;;;;;24.40;21.90;;;19.30;54.60;;;;;;5016130;28;20022;-69
2023/02/05 13:05:42;;;;;;;24.02;21.52;;;19.30;55.20;;;;;;5018521;28;20033;-69
2023/02/05 13:08:23;;;;;;;24.55;22.13;;;19.30;54.60;;;;;;5019099;28;20018;-69
2023/02/05 13:10:56;;;;;;;23.38;20.98;;;19.30;54.70;;;;;;5019696;28;20025;-69